Time;durP1;ratioP1;P1;durP2;ratioP2;P2;SDS_P1;SDS_P2;PMS_P1;PMS_P2;Temp;Humidity;BMP_temperature;BMP_pressure;BME280_temperature;BME280_humidity;BME280_pressure;Samples;Min_cycle;Max_cycle;Signal;HPM_P1;HPM_P2
2023/08/18 00:00:55;;;;;;;6.68;3.70;;;;;;;23.98;46.05;95043.09;4988411;28;20026;-82
2023/08/18 00:03:20;;;;;;;5.07;4.03;;;;;;;24.04;45.83;95047.38;4989899;28;20050;-81
2023/08/18 00:05:46;;;;;;;6.97;3.95;;;;;;;24.00;45.89;95046.91;4971842;28;20030;-82
2023/08/18 00:08:12;;;;;;;5.43;3.92;;;;;;;23.98;45.88;95054.31;4990192;28;20574;-82
2023/08/18 00:10:37;;;;;;;5.25;3.60;;;;;;;23.96;46.04;95042.84;4988761;28;20400;-80
2023/08/18 00:13:03;;;;;;;4.45;3.80;;;;;;;24.00;45.74;95049.69;5006932;28;20129;-82
2023/08/18 00:15:28;;;;;;;7.05;4.35;;;;;;;23.96;46.21;95040.03;5006789;28;20026;-82
2023/08/18 00:17:54;;;;;;;8.57;3.83;;;;;;;23.93;46.03;95036.25;4971351;28;20297;-82
2023/08/18 00:20:20;;;;;;;7.10;4.05;;;;;;;23.83;45.74;95026.63;4973360;28;20452;-82
2023/08/18 00:22:45;;;;;;;6.68;3.80;;;;;;;23.90;45.75;95030.91;4971440;28;20022;-82
2023/08/18 00:25:11;;;;;;;7.07;3.88;;;;;;;23.89;45.85;95032.94;4989555;28;20026;-81
2023/08/18 00:27:37;;;;;;;6.25;3.97;;;;;;;23.91;45.90;95033.16;4971304;28;20104;-81
2023/08/18 00:30:05;;;;;;;6.95;3.72;;;;;;;23.87;45.94;95021.50;4988820;28;20471;-81
2023/08/18 00:32:30;;;;;;;5.47;3.72;;;;;;;23.85;45.87;95022.00;5006216;28;20026;-81
2023/08/18 00:34:55;;;;;;;4.50;3.58;;;;;;;23.78;46.02;95024.63;5005760;28;20088;-81
2023/08/18 00:37:21;;;;;;;9.52;4.60;;;;;;;23.88;46.26;95027.88;4972927;28;20021;-80
2023/08/18 00:39:46;;;;;;;5.25;3.85;;;;;;;23.94;45.61;95026.53;5005933;28;20026;-81
2023/08/18 00:42:12;;;;;;;5.18;3.90;;;;;;;23.83;45.84;95018.19;5008341;28;20026;-82
2023/08/18 00:44:37;;;;;;;7.60;4.05;;;;;;;23.85;46.17;95024.78;4987792;28;20440;-81
2023/08/18 00:47:03;;;;;;;4.10;3.30;;;;;;;23.80;46.00;95022.81;4989734;28;20073;-81
2023/08/18 00:49:29;;;;;;;5.93;3.80;;;;;;;23.85;45.70;95024.03;4972025;28;20025;-82
2023/08/18 00:51:55;;;;;;;6.43;3.78;;;;;;;23.90;45.53;95022.47;4988137;28;20492;-81
2023/08/18 00:54:21;;;;;;;4.63;3.50;;;;;;;23.93;45.59;95032.66;4972495;28;20028;-81
2023/08/18 00:56:47;;;;;;;6.25;3.60;;;;;;;23.90;45.74;95031.66;4986801;28;20109;-81
2023/08/18 00:59:13;;;;;;;7.30;3.92;;;;;;;23.94;45.75;95031.38;4972990;28;20152;-81
2023/08/18 01:01:39;;;;;;;6.15;4.00;;;;;;;23.92;45.94;95034.72;4988292;28;20030;-82
2023/08/18 01:04:05;;;;;;;5.93;3.75;;;;;;;23.90;45.93;95031.66;4991922;28;20484;-82
2023/08/18 01:06:31;;;;;;;6.88;3.97;;;;;;;23.89;46.11;95030.13;4972574;28;20032;-81
2023/08/18 01:08:57;;;;;;;6.50;3.78;;;;;;;23.91;46.28;95033.16;4989171;28;20029;-82
2023/08/18 01:11:34;;;;;;;4.10;3.58;;;;;;;24.00;46.08;95030.03;4988391;28;20038;-81
2023/08/18 01:14:24;;;;;;;4.63;4.05;;;;;;;23.95;46.28;95028.03;5004978;28;20049;-81
2023/08/18 01:17:01;;;;;;;6.82;3.63;;;;;;;23.89;46.25;95026.56;4988686;28;20034;-81
2023/08/18 01:19:27;;;;;;;5.70;3.60;;;;;;;23.89;46.27;95035.00;4971206;28;20049;-81
2023/08/18 01:21:57;;;;;;;5.15;3.55;;;;;;;23.91;46.27;95035.97;4972553;28;20042;-80
2023/08/18 01:24:26;;;;;;;5.15;3.92;;;;;;;23.79;46.35;95026.13;4988346;28;20029;-81
2023/08/18 01:26:52;;;;;;;5.47;3.90;;;;;;;23.77;46.61;95025.91;4984968;28;20026;-82
2023/08/18 01:29:22;;;;;;;5.07;3.90;;;;;;;23.80;46.55;95033.28;4984046;28;20030;-81
2023/08/18 01:31:52;;;;;;;6.90;4.07;;;;;;;23.78;46.61;95033.03;4968788;28;20088;-81
2023/08/18 01:34:18;;;;;;;7.38;4.10;;;;;;;23.77;46.43;95023.84;4995084;28;20037;-80
2023/08/18 01:36:44;;;;;;;7.07;4.22;;;;;;;23.77;46.52;95035.09;4990070;28;20026;-80
2023/08/18 01:39:12;;;;;;;7.30;4.03;;;;;;;23.77;46.62;95031.50;4994900;28;20436;-80
2023/08/18 01:41:40;;;;;;;6.32;4.10;;;;;;;23.69;46.87;95031.31;4994086;28;20429;-80
2023/08/18 01:44:06;;;;;;;6.18;4.05;;;;;;;23.59;46.99;95030.84;4994200;28;20030;-80
2023/08/18 01:46:32;;;;;;;6.22;3.97;;;;;;;23.61;47.53;95035.94;4994551;28;20053;-80
2023/08/18 01:48:57;;;;;;;8.18;4.13;;;;;;;23.51;47.31;95032.69;4992161;28;20060;-80
2023/08/18 01:51:22;;;;;;;5.72;3.97;;;;;;;23.57;47.47;95035.47;4978593;28;20038;-81
2023/08/18 01:53:48;;;;;;;4.88;4.38;;;;;;;23.59;47.11;95032.91;5007685;28;20030;-79
2023/08/18 01:56:14;;;;;;;8.25;4.65;;;;;;;23.58;47.43;95029.31;5009241;28;20499;-81
2023/08/18 01:58:39;;;;;;;6.63;4.47;;;;;;;23.51;47.23;95024.28;4988560;28;20022;-82
2023/08/18 02:01:05;;;;;;;5.90;4.05;;;;;;;23.59;47.15;95030.84;5011860;28;20477;-81
2023/08/18 02:03:30;;;;;;;4.53;3.95;;;;;;;23.54;47.04;95026.03;4994404;28;20498;-81
2023/08/18 02:05:56;;;;;;;4.95;4.05;;;;;;;23.53;47.05;95020.94;5011007;28;20029;-82
2023/08/18 02:08:22;;;;;;;7.30;4.43;;;;;;;23.43;47.22;95022.53;4994557;28;20030;-79
2023/08/18 02:10:48;;;;;;;5.78;4.22;;;;;;;23.35;47.60;95013.16;4977205;28;20447;-81
2023/08/18 02:13:14;;;;;;;5.43;4.45;;;;;;;23.32;47.28;95017.75;4978254;28;20022;-80
2023/08/18 02:15:39;;;;;;;6.38;4.20;;;;;;;23.25;47.77;95016.28;4970815;28;20025;-81
2023/08/18 02:18:05;;;;;;;6.93;4.28;;;;;;;23.23;47.79;95020.88;4977260;28;20029;-82
2023/08/18 02:20:32;;;;;;;5.85;4.72;;;;;;;23.26;47.79;95015.00;4994140;28;20056;-81
2023/08/18 02:22:57;;;;;;;6.65;4.18;;;;;;;23.33;47.64;95019.28;4977161;28;20021;-81
2023/08/18 02:25:23;;;;;;;5.65;3.97;;;;;;;23.30;47.75;95014.72;4977524;28;20030;-81
2023/08/18 02:27:48;;;;;;;8.40;4.68;;;;;;;23.31;47.78;95019.81;4991180;28;20379;-82
2023/08/18 02:30:14;;;;;;;5.93;4.68;;;;;;;23.34;47.88;95012.41;4993803;28;20480;-81
2023/08/18 02:32:39;;;;;;;6.30;4.15;;;;;;;23.33;48.23;95008.81;4976697;28;20030;-80
2023/08/18 02:35:05;;;;;;;7.78;4.10;;;;;;;23.36;48.22;95015.44;4993250;28;20340;-81
2023/08/18 02:37:31;;;;;;;7.68;4.30;;;;;;;23.38;48.13;95010.06;4993074;28;20053;-82
2023/08/18 02:39:57;;;;;;;7.38;4.20;;;;;;;23.34;48.59;95009.59;4977595;28;20026;-82
2023/08/18 02:42:22;;;;;;;6.70;4.03;;;;;;;23.36;48.46;95006.28;4977332;28;20056;-81
2023/08/18 02:44:48;;;;;;;4.93;4.40;;;;;;;23.35;48.83;95013.94;4989949;28;20037;-81
2023/08/18 02:47:13;;;;;;;5.32;4.25;;;;;;;23.35;48.67;95013.94;4990540;28;20049;-81
2023/08/18 02:49:39;;;;;;;6.30;4.57;;;;;;;23.31;49.07;95010.63;4987895;28;20388;-80
2023/08/18 02:52:05;;;;;;;6.78;4.78;;;;;;;23.26;48.65;95009.38;4990810;28;20025;-82
2023/08/18 02:54:30;;;;;;;6.00;4.75;;;;;;;23.29;49.05;95013.97;4988632;28;20037;-81
2023/08/18 02:56:56;;;;;;;5.47;4.57;;;;;;;23.24;49.31;95008.38;4991255;28;20480;-80
2023/08/18 02:59:21;;;;;;;7.22;4.57;;;;;;;23.26;48.89;95017.03;4973347;28;20477;-81
2023/08/18 03:01:47;;;;;;;6.97;4.22;;;;;;;23.26;49.10;95011.41;5008196;28;20524;-81
2023/08/18 03:04:14;;;;;;;7.55;4.53;;;;;;;23.17;49.58;95006.13;4973808;28;20038;-82
2023/08/18 03:06:41;;;;;;;6.43;4.70;;;;;;;23.25;49.52;95013.47;4990163;28;20037;-81
2023/08/18 03:09:07;;;;;;;7.65;4.93;;;;;;;23.10;49.43;95012.28;4990408;28;20026;-81
2023/08/18 03:11:32;;;;;;;10.20;4.78;;;;;;;23.05;49.99;95005.41;5006221;28;20034;-81
2023/08/18 03:13:58;;;;;;;6.13;4.72;;;;;;;23.00;50.01;95012.59;4988191;28;20030;-80
2023/08/18 03:16:23;;;;;;;8.48;4.28;;;;;;;22.96;49.79;95014.91;4987037;28;20105;-82
2023/08/18 03:18:49;;;;;;;7.88;4.63;;;;;;;22.94;49.82;95014.66;5008285;28;20036;-81
2023/08/18 03:21:14;;;;;;;6.47;4.18;;;;;;;22.95;50.02;95007.00;4988513;28;20018;-81
2023/08/18 03:23:39;;;;;;;8.45;4.63;;;;;;;23.01;50.04;95016.16;4990427;28;20030;-82
2023/08/18 03:26:06;;;;;;;9.98;5.00;;;;;;;23.00;49.91;95020.25;5009390;28;20034;-80
2023/08/18 03:28:34;;;;;;;6.90;4.45;;;;;;;22.96;49.94;95019.75;4984542;28;20072;-81
2023/08/18 03:31:01;;;;;;;8.43;4.30;;;;;;;22.95;50.17;95004.22;4988090;28;20034;-81
2023/08/18 03:33:27;;;;;;;6.57;4.47;;;;;;;22.92;50.06;95017.19;4988957;28;20029;-83
2023/08/18 03:35:53;;;;;;;6.68;4.65;;;;;;;22.89;50.11;95017.50;4973194;28;20030;-81
2023/08/18 03:38:18;;;;;;;6.18;4.70;;;;;;;22.93;49.95;95010.31;4988411;28;20022;-82
2023/08/18 03:40:44;;;;;;;7.22;4.80;;;;;;;22.88;50.03;95016.72;4973534;28;20030;-82
2023/08/18 03:43:10;;;;;;;6.32;5.00;;;;;;;22.89;50.12;95017.50;5007015;28;20034;-81
2023/08/18 03:45:37;;;;;;;7.65;5.25;;;;;;;22.90;49.99;95016.22;4988614;28;20037;-81
2023/08/18 03:48:02;;;;;;;9.90;5.32;;;;;;;22.90;50.09;95025.38;4973559;28;20036;-81
2023/08/18 03:50:28;;;;;;;7.40;4.97;;;;;;;22.87;50.03;95020.78;4970891;28;20042;-81
2023/08/18 03:52:55;;;;;;;6.03;5.00;;;;;;;22.86;50.07;95022.03;4989923;28;20625;-82
2023/08/18 03:55:23;;;;;;;5.50;4.90;;;;;;;22.84;49.95;95027.41;4969319;28;20018;-82
2023/08/18 03:57:48;;;;;;;8.13;5.68;;;;;;;22.79;49.89;95023.34;5006488;28;20025;-82
2023/08/18 04:00:14;;;;;;;8.60;5.60;;;;;;;22.76;50.01;95018.75;5005697;28;20040;-82
2023/08/18 04:02:39;;;;;;;7.25;5.72;;;;;;;22.73;50.27;95017.00;5006403;28;20385;-81
2023/08/18 04:05:06;;;;;;;7.25;5.47;;;;;;;22.78;50.20;95024.63;4989239;28;20065;-82
2023/08/18 04:07:31;;;;;;;8.82;5.22;;;;;;;22.82;50.29;95032.75;5006497;28;20041;-82
2023/08/18 04:09:57;;;;;;;5.72;5.10;;;;;;;22.81;50.48;95034.03;4973037;28;20495;-83
2023/08/18 04:12:24;;;;;;;6.82;4.82;;;;;;;22.83;50.58;95031.50;4972183;28;20060;-81
2023/08/18 04:14:53;;;;;;;7.03;4.80;;;;;;;22.86;50.21;95029.69;5006617;28;20489;-82
2023/08/18 04:17:19;;;;;;;10.57;5.60;;;;;;;22.88;50.69;95035.56;4986406;28;20087;-82
2023/08/18 04:19:45;;;;;;;7.00;5.50;;;;;;;22.89;50.66;95039.91;5006349;28;20037;-82
2023/08/18 04:22:10;;;;;;;8.43;5.20;;;;;;;22.87;50.62;95037.59;4987914;28;20331;-82
2023/08/18 04:24:36;;;;;;;6.00;5.10;;;;;;;22.87;50.90;95037.59;4972002;28;20444;-82
2023/08/18 04:27:02;;;;;;;10.48;5.85;;;;;;;22.91;50.72;95035.31;5006425;28;20068;-81
2023/08/18 04:29:28;;;;;;;8.18;5.53;;;;;;;22.95;50.68;95041.41;5005255;28;20404;-80
2023/08/18 04:31:54;;;;;;;9.00;5.68;;;;;;;22.92;50.55;95036.81;4989230;28;20026;-81
2023/08/18 04:34:21;;;;;;;8.05;5.28;;;;;;;22.96;50.68;95042.94;5003184;28;20109;-81
2023/08/18 04:36:46;;;;;;;8.32;5.68;;;;;;;22.99;50.95;95038.31;4971807;28;20412;-81
2023/08/18 04:39:12;;;;;;;8.43;4.90;;;;;;;22.99;50.89;95036.28;5006147;28;20025;-84
2023/08/18 04:41:38;;;;;;;9.23;5.13;;;;;;;23.02;50.87;95038.06;5005707;28;20091;-82
2023/08/18 04:44:04;;;;;;;9.23;5.60;;;;;;;23.03;50.75;95036.00;4988247;28;20083;-81
2023/08/18 04:46:30;;;;;;;11.05;5.22;;;;;;;23.09;50.34;95044.41;4971381;28;20033;-84
2023/08/18 04:48:55;;;;;;;9.52;5.47;;;;;;;23.08;50.53;95049.25;4988698;28;20476;-82
2023/08/18 04:51:21;;;;;;;6.25;5.00;;;;;;;23.04;50.71;95043.91;5005117;28;20108;-82
2023/08/18 04:53:47;;;;;;;8.23;5.20;;;;;;;23.12;50.65;95052.56;5006764;28;20022;-81
2023/08/18 04:56:12;;;;;;;8.93;5.32;;;;;;;23.15;50.39;95051.50;4971406;28;20029;-81
2023/08/18 04:58:38;;;;;;;9.27;4.97;;;;;;;23.25;50.34;95055.53;5005901;28;20338;-82
2023/08/18 05:01:04;;;;;;;7.97;5.10;;;;;;;23.31;50.33;95049.91;5003101;28;20029;-81
2023/08/18 05:03:30;;;;;;;8.75;5.38;;;;;;;23.23;50.55;95044.09;5002522;28;20133;-81
2023/08/18 05:06:03;;;;;;;6.25;4.80;;;;;;;23.26;50.41;95054.25;4972946;28;20187;-82
2023/08/18 05:08:29;;;;;;;10.73;5.10;;;;;;;23.24;50.40;95048.41;4968892;28;21027;-81
2023/08/18 05:11:02;;;;;;;6.72;4.80;;;;;;;23.30;50.14;95057.56;4992373;28;20049;-81
2023/08/18 05:13:28;;;;;;;9.40;5.10;;;;;;;23.31;50.39;95059.06;4990497;28;20408;-81
2023/08/18 05:15:53;;;;;;;7.35;5.50;;;;;;;23.32;50.22;95057.03;4991128;28;20022;-81
2023/08/18 05:18:20;;;;;;;5.75;5.10;;;;;;;23.39;50.19;95059.28;5008295;28;20116;-81
2023/08/18 05:20:45;;;;;;;7.45;5.30;;;;;;;23.37;49.98;95067.44;4969568;28;20034;-80
2023/08/18 05:23:16;;;;;;;10.18;4.97;;;;;;;23.33;49.94;95062.09;5006446;28;20033;-81
2023/08/18 05:25:43;;;;;;;8.27;5.65;;;;;;;23.42;50.26;95066.66;4989402;28;20030;-81
2023/08/18 05:28:08;;;;;;;8.13;5.05;;;;;;;23.44;50.00;95058.47;5007738;28;20056;-80
2023/08/18 05:30:36;;;;;;;6.85;5.07;;;;;;;23.46;49.87;95060.78;5006862;28;20462;-82
2023/08/18 05:33:02;;;;;;;5.65;4.90;;;;;;;23.54;49.70;95067.34;5005247;28;20029;-82
2023/08/18 05:35:27;;;;;;;8.30;5.03;;;;;;;23.59;49.50;95067.31;4965075;28;20037;-82
2023/08/18 05:37:53;;;;;;;7.88;5.53;;;;;;;23.71;49.52;95070.09;5005345;28;20033;-82
2023/08/18 05:40:20;;;;;;;5.95;4.63;;;;;;;23.65;49.21;95075.72;5005858;28;20026;-82
2023/08/18 05:42:45;;;;;;;7.00;5.13;;;;;;;23.64;49.48;95073.47;4986719;28;20499;-75
2023/08/18 05:45:11;;;;;;;7.07;5.10;;;;;;;23.64;49.54;95062.22;5001921;28;20018;-79
2023/08/18 05:47:38;;;;;;;7.45;5.15;;;;;;;23.73;49.13;95075.94;5004431;28;20113;-83
2023/08/18 05:50:05;;;;;;;11.35;5.30;;;;;;;23.74;49.22;95069.81;4972397;28;20030;-80
2023/08/18 05:52:30;;;;;;;6.15;4.95;;;;;;;23.90;48.59;95070.97;4987415;28;20076;-78
2023/08/18 05:54:55;;;;;;;8.57;4.70;;;;;;;23.78;48.15;95058.28;4987970;28;20033;-78
2023/08/18 05:57:21;;;;;;;7.97;4.75;;;;;;;23.77;48.42;95063.16;4971817;28;20429;-79
2023/08/18 05:59:47;;;;;;;8.02;5.15;;;;;;;23.75;48.33;95062.91;4971173;28;20087;-79
2023/08/18 06:02:13;;;;;;;8.98;5.45;;;;;;;23.72;48.45;95061.13;5005598;28;20508;-78
2023/08/18 06:04:38;;;;;;;8.50;5.20;;;;;;;23.80;48.49;95066.97;5005108;28;20018;-78
2023/08/18 06:07:04;;;;;;;8.52;4.70;;;;;;;23.85;48.32;95066.91;5005564;28;20022;-79
2023/08/18 06:09:30;;;;;;;9.85;5.03;;;;;;;23.80;48.27;95066.97;5005223;28;20026;-78
2023/08/18 06:11:55;;;;;;;7.65;4.65;;;;;;;23.78;48.80;95067.47;5005500;28;20021;-79
2023/08/18 06:14:20;;;;;;;7.57;5.50;;;;;;;23.82;49.15;95067.97;4987818;28;20026;-78
2023/08/18 06:16:46;;;;;;;5.57;4.80;;;;;;;23.94;48.97;95070.69;4987343;28;20170;-79
2023/08/18 06:19:12;;;;;;;7.10;5.15;;;;;;;24.02;48.88;95068.81;5007325;28;20026;-80
2023/08/18 06:21:37;;;;;;;9.63;4.70;;;;;;;24.09;48.70;95066.22;5008748;28;20029;-78
2023/08/18 06:24:03;;;;;;;6.70;4.57;;;;;;;24.15;48.50;95062.63;5009398;28;20034;-79
2023/08/18 06:26:29;;;;;;;6.47;5.00;;;;;;;24.30;47.86;95066.53;5008789;28;20017;-78
2023/08/18 06:28:54;;;;;;;12.40;4.60;;;;;;;24.38;46.97;95063.97;5008906;28;20026;-81
2023/08/18 06:31:19;;;;;;;8.60;4.50;;;;;;;24.54;46.88;95071.44;5008811;28;20021;-79
2023/08/18 06:33:45;;;;;;;7.60;4.50;;;;;;;24.59;46.08;95070.63;5009165;28;20046;-80
2023/08/18 06:36:11;;;;;;;6.78;4.50;;;;;;;24.61;46.08;95061.69;5009214;28;20026;-79
2023/08/18 06:38:36;;;;;;;5.90;4.20;;;;;;;24.75;45.43;95070.97;4991105;28;20030;-80
2023/08/18 06:41:01;;;;;;;5.85;4.05;;;;;;;24.84;45.34;95079.06;4991110;28;20369;-80
2023/08/18 06:43:27;;;;;;;8.00;4.55;;;;;;;24.96;45.00;95080.47;4990810;28;20017;-80
2023/08/18 06:45:52;;;;;;;4.90;4.18;;;;;;;25.04;44.76;95066.56;5008977;28;20018;-78
2023/08/18 06:48:18;;;;;;;4.57;4.15;;;;;;;25.07;44.70;95077.56;5008482;28;20026;-78
2023/08/18 06:50:43;;;;;;;8.45;4.50;;;;;;;25.08;44.71;95055.81;5008969;28;20025;-79
2023/08/18 06:53:08;;;;;;;9.25;4.72;;;;;;;25.32;44.58;95080.31;4991202;28;20455;-79
2023/08/18 06:55:34;;;;;;;9.05;4.00;;;;;;;25.43;43.93;95072.47;5008632;28;20017;-80
2023/08/18 06:57:59;;;;;;;6.03;4.50;;;;;;;25.53;42.80;95072.09;4990591;28;20393;-81
2023/08/18 07:00:25;;;;;;;5.82;4.00;;;;;;;25.54;42.88;95073.63;4990406;28;20026;-79
2023/08/18 07:02:50;;;;;;;5.88;4.00;;;;;;;25.55;42.88;95070.25;4990489;28;20038;-80
2023/08/18 07:05:17;;;;;;;5.90;4.22;;;;;;;25.60;43.23;95069.44;5008407;28;20018;-80
2023/08/18 07:07:43;;;;;;;8.45;4.47;;;;;;;25.71;43.32;95067.75;4974905;28;20083;-80
2023/08/18 07:10:09;;;;;;;7.38;4.40;;;;;;;25.80;43.45;95058.94;4990056;28;20030;-79
2023/08/18 07:12:35;;;;;;;6.60;4.22;;;;;;;25.81;43.05;95049.97;5008441;28;20109;-80
2023/08/18 07:15:00;;;;;;;5.22;4.15;;;;;;;25.92;42.29;95063.09;5008125;28;20106;-79
2023/08/18 07:17:26;;;;;;;6.75;4.15;;;;;;;25.98;41.88;95060.97;4990133;28;20030;-80
2023/08/18 07:19:51;;;;;;;5.68;3.75;;;;;;;26.06;41.71;95053.41;4990475;28;20037;-81
2023/08/18 07:22:16;;;;;;;7.70;4.10;;;;;;;26.18;41.87;95056.78;4990101;28;20022;-81
2023/08/18 07:24:42;;;;;;;7.57;4.20;;;;;;;26.26;41.44;95048.47;5008557;28;20026;-80
2023/08/18 07:27:07;;;;;;;4.63;3.55;;;;;;;26.38;40.75;95052.59;5007160;28;20662;-80
2023/08/18 07:29:34;;;;;;;5.53;4.15;;;;;;;26.45;41.15;95052.00;5008437;28;20025;-81
2023/08/18 07:32:00;;;;;;;7.03;3.70;;;;;;;26.56;40.65;95057.44;5007010;28;20032;-78
2023/08/18 07:34:25;;;;;;;4.90;3.80;;;;;;;26.73;40.73;95057.13;4968563;28;20076;-83
2023/08/18 07:36:51;;;;;;;4.60;3.25;;;;;;;26.80;40.23;95053.66;4984524;28;20029;-78
2023/08/18 07:39:16;;;;;;;6.68;3.83;;;;;;;26.88;40.17;95059.41;4982756;28;20404;-85
2023/08/18 07:41:43;;;;;;;6.00;3.75;;;;;;;26.92;40.63;95060.59;4988470;28;20503;-85
2023/08/18 07:44:08;;;;;;;7.75;4.32;;;;;;;27.04;40.05;95054.75;5003743;28;20026;-84
2023/08/18 07:46:34;;;;;;;4.68;3.53;;;;;;;27.14;39.07;95047.38;4988669;28;20573;-85
2023/08/18 07:49:00;;;;;;;4.57;3.50;;;;;;;27.10;39.69;95047.69;4989839;28;20484;-89
2023/08/18 07:51:25;;;;;;;5.22;3.65;;;;;;;27.27;39.50;95047.34;5005293;28;20026;-81
2023/08/18 07:53:51;;;;;;;6.13;3.90;;;;;;;27.35;38.54;95051.03;5006663;28;20034;-81
2023/08/18 07:56:16;;;;;;;4.50;3.38;;;;;;;27.35;38.08;95055.91;5005408;28;20030;-84
2023/08/18 07:58:42;;;;;;;5.63;3.10;;;;;;;27.24;38.06;95049.22;4972483;28;20404;-82
2023/08/18 08:01:07;;;;;;;5.70;3.47;;;;;;;27.38;38.12;95049.94;4985287;28;20041;-82
2023/08/18 08:03:33;;;;;;;4.18;3.70;;;;;;;27.51;37.73;95047.06;4972427;28;20073;-83
2023/08/18 08:05:58;;;;;;;5.28;3.80;;;;;;;27.68;37.87;95055.16;4970142;28;20125;-87
2023/08/18 08:08:24;;;;;;;5.65;3.65;;;;;;;27.79;38.07;95048.53;5003808;28;20041;-81
2023/08/18 08:10:49;;;;;;;8.85;3.45;;;;;;;27.95;37.04;95052.28;4985342;28;20026;-85
2023/08/18 08:13:15;;;;;;;5.97;3.58;;;;;;;28.01;37.75;95059.31;4987231;28;20084;-80
2023/08/18 08:15:45;;;;;;;4.57;3.05;;;;;;;28.10;35.42;95051.66;4987098;28;20401;-83
2023/08/18 08:18:15;;;;;;;4.53;3.30;;;;;;;28.02;35.65;95045.94;4971024;28;20091;-82
2023/08/18 08:20:41;;;;;;;8.48;3.33;;;;;;;28.05;36.02;95039.97;4970532;28;20030;-83
2023/08/18 08:23:07;;;;;;;6.20;3.13;;;;;;;28.09;35.66;95039.59;4987443;28;20305;-84
2023/08/18 08:25:33;;;;;;;6.75;3.63;;;;;;;28.06;35.19;95040.72;4970248;28;20549;-84
2023/08/18 08:27:59;;;;;;;4.63;3.47;;;;;;;28.18;35.95;95038.38;4968798;28;20045;-82
2023/08/18 08:30:24;;;;;;;6.70;3.38;;;;;;;28.36;35.84;95042.31;4987730;28;20022;-82
2023/08/18 08:32:50;;;;;;;3.45;2.75;;;;;;;28.40;33.97;95045.56;4968618;28;20096;-83
2023/08/18 08:35:16;;;;;;;6.88;2.88;;;;;;;28.43;34.57;95041.63;4971639;28;20022;-82
2023/08/18 08:37:41;;;;;;;4.25;3.17;;;;;;;28.47;34.75;95042.78;4970617;28;20030;-82
2023/08/18 08:40:10;;;;;;;4.80;2.80;;;;;;;28.54;33.90;95033.59;4968838;28;20145;-83
2023/08/18 08:42:35;;;;;;;7.10;3.45;;;;;;;28.63;33.81;95040.84;4952841;28;20117;-83
2023/08/18 08:45:01;;;;;;;6.70;3.40;;;;;;;28.73;33.98;95033.38;4986959;28;20105;-83
2023/08/18 08:47:26;;;;;;;6.65;3.20;;;;;;;28.87;33.07;95041.75;4987075;28;20030;-82
2023/08/18 08:50:02;;;;;;;4.20;2.95;;;;;;;29.00;33.19;95041.66;4969824;28;20061;-83
2023/08/18 08:52:36;;;;;;;5.72;3.45;;;;;;;29.17;33.33;95033.44;4986225;28;20029;-83
2023/08/18 08:55:03;;;;;;;5.32;3.00;;;;;;;29.33;32.67;95039.94;4987741;28;20109;-83
2023/08/18 08:57:28;;;;;;;4.78;3.00;;;;;;;29.53;32.47;95032.66;4968866;28;20421;-83
2023/08/18 08:59:54;;;;;;;5.93;2.92;;;;;;;29.70;31.76;95037.81;4969676;28;20818;-82
2023/08/18 09:02:20;;;;;;;3.83;2.60;;;;;;;29.74;31.42;95033.28;4968821;28;20177;-83
2023/08/18 09:04:46;;;;;;;5.15;2.10;;;;;;;29.87;29.61;95030.31;4969935;28;20104;-83
2023/08/18 09:07:12;;;;;;;6.63;2.85;;;;;;;29.98;32.09;95031.25;4969206;28;20432;-84
2023/08/18 09:09:38;;;;;;;5.82;3.15;;;;;;;30.13;32.25;95031.31;4986945;28;20489;-81
2023/08/18 09:12:07;;;;;;;4.55;2.92;;;;;;;30.30;31.31;95017.34;4969625;28;20026;-83
2023/08/18 09:14:34;;;;;;;3.75;2.78;;;;;;;30.44;31.17;95029.25;4986204;28;20033;-79
2023/08/18 09:17:03;;;;;;;4.28;2.75;;;;;;;30.50;31.04;95021.31;4986732;28;20478;-82
2023/08/18 09:19:28;;;;;;;4.70;2.95;;;;;;;30.61;30.64;95003.13;4955370;28;20425;-82
2023/08/18 09:21:56;;;;;;;4.68;2.97;;;;;;;30.81;30.09;95026.97;4988776;28;20055;-82
2023/08/18 09:24:22;;;;;;;7.43;2.90;;;;;;;30.92;30.39;95026.59;4953822;28;20464;-84
2023/08/18 09:26:48;;;;;;;3.67;2.67;;;;;;;31.10;30.81;95016.88;4987678;28;20057;-81
2023/08/18 09:29:13;;;;;;;7.15;2.67;;;;;;;31.28;29.93;95017.03;4987166;28;20054;-84
2023/08/18 09:31:39;;;;;;;6.05;2.90;;;;;;;31.43;29.87;95020.56;4995652;28;20058;-80
2023/08/18 09:34:04;;;;;;;6.00;2.70;;;;;;;31.64;29.80;95022.34;4973140;28;20027;-82
2023/08/18 09:36:33;;;;;;;5.00;2.67;;;;;;;31.80;29.57;95018.13;4985666;28;20409;-81
2023/08/18 09:39:03;;;;;;;4.70;2.60;;;;;;;32.03;28.39;95025.78;4986919;28;20027;-81
2023/08/18 09:41:29;;;;;;;3.95;2.58;;;;;;;32.24;27.71;95026.19;4951440;28;20035;-81
2023/08/18 09:43:54;;;;;;;4.45;2.67;;;;;;;32.30;27.65;95014.59;4994601;28;20030;-82
2023/08/18 09:46:21;;;;;;;5.00;2.70;;;;;;;32.48;27.77;95021.84;4982219;28;20026;-84
2023/08/18 09:48:48;;;;;;;3.95;2.30;;;;;;;32.63;26.31;95029.50;4982117;28;20030;-83
2023/08/18 09:51:15;;;;;;;5.65;2.13;;;;;;;32.67;25.65;95021.31;4985459;28;20515;-82
2023/08/18 09:53:49;;;;;;;3.67;2.13;;;;;;;32.67;26.57;95027.75;4971627;28;20109;-84
2023/08/18 09:56:24;;;;;;;3.35;2.70;;;;;;;32.74;27.25;95018.38;4958258;28;20507;-85
2023/08/18 09:58:49;;;;;;;4.35;2.53;;;;;;;32.86;26.53;95015.81;4973219;28;20073;-81
2023/08/18 10:01:15;;;;;;;5.78;2.17;;;;;;;32.75;26.15;95013.47;4990779;28;20097;-80
2023/08/18 10:03:41;;;;;;;4.22;2.47;;;;;;;32.87;26.76;95008.78;4972798;28;20054;-83
2023/08/18 10:06:07;;;;;;;3.60;2.20;;;;;;;33.07;26.67;95006.88;4990722;28;20033;-81
2023/08/18 10:08:34;;;;;;;5.65;2.72;;;;;;;33.32;26.78;95003.97;4990508;28;20544;-83
2023/08/18 10:11:00;;;;;;;7.15;2.58;;;;;;;33.53;25.99;95004.25;4989881;28;20049;-81
2023/08/18 10:13:29;;;;;;;3.92;2.55;;;;;;;33.77;26.21;95011.16;4972590;28;20421;-83
2023/08/18 10:15:55;;;;;;;7.45;2.63;;;;;;;33.99;25.62;95014.31;4972357;28;20041;-82
2023/08/18 10:18:21;;;;;;;3.30;2.35;;;;;;;34.17;25.62;95018.59;4956697;28;20041;-83
2023/08/18 10:20:50;;;;;;;4.13;2.38;;;;;;;34.34;24.85;95009.97;4989816;28;20103;-82
2023/08/18 10:23:16;;;;;;;4.38;2.67;;;;;;;34.48;25.09;95009.59;4991425;28;20034;-83
2023/08/18 10:25:43;;;;;;;3.03;2.05;;;;;;;34.54;24.54;95015.78;4990113;28;20026;-83
2023/08/18 10:28:10;;;;;;;6.47;2.90;;;;;;;34.72;24.88;95019.28;4955649;28;20030;-83
2023/08/18 10:30:35;;;;;;;4.95;2.80;;;;;;;34.81;24.64;95007.09;4989834;28;20058;-83
2023/08/18 10:33:08;;;;;;;6.20;2.55;;;;;;;34.87;23.96;95010.44;4971767;28;20046;-82
2023/08/18 10:35:37;;;;;;;5.32;2.20;;;;;;;34.87;23.96;95013.31;4972304;28;20030;-85
2023/08/18 10:38:04;;;;;;;5.95;2.85;;;;;;;34.76;25.01;95014.63;4989544;28;20026;-81
2023/08/18 10:40:37;;;;;;;4.45;2.50;;;;;;;34.93;24.67;95021.59;4979626;28;20515;-82
2023/08/18 10:43:12;;;;;;;4.05;2.40;;;;;;;35.06;24.30;95019.06;4987395;28;20201;-85
2023/08/18 10:45:40;;;;;;;3.75;2.38;;;;;;;35.27;24.28;95009.13;4977232;28;20034;-90
2023/08/18 10:48:06;;;;;;;3.95;2.15;;;;;;;35.45;24.13;95006.91;5012753;28;20079;-86
2023/08/18 10:50:36;;;;;;;5.40;2.83;;;;;;;35.61;23.84;95014.56;4998936;28;20079;-87
2023/08/18 10:53:04;;;;;;;4.35;2.45;;;;;;;35.75;23.58;95014.84;4991922;28;20510;-86
2023/08/18 10:55:30;;;;;;;6.55;2.60;;;;;;;35.84;22.64;94993.28;5008453;28;20034;-84
2023/08/18 10:57:55;;;;;;;4.13;2.90;;;;;;;35.90;23.12;94983.06;5009542;28;20048;-87
2023/08/18 11:00:21;;;;;;;4.53;2.38;;;;;;;36.05;23.11;94993.41;4991043;28;20026;-86
2023/08/18 11:02:49;;;;;;;3.47;2.47;;;;;;;36.17;22.29;94996.38;5010376;28;20049;-87
2023/08/18 11:05:16;;;;;;;7.68;2.90;;;;;;;36.10;22.32;94992.34;5005818;28;20177;-87
2023/08/18 11:07:43;;;;;;;5.25;2.50;;;;;;;36.32;22.57;94998.88;5008578;28;20040;-86
2023/08/18 11:10:27;;;;;;;4.00;2.25;;;;;;;36.14;22.08;95006.94;5011548;28;20034;-87
2023/08/18 11:12:56;;;;;;;5.47;2.45;;;;;;;35.87;22.78;94992.84;5009426;28;20417;-85
2023/08/18 11:15:22;;;;;;;4.78;2.47;;;;;;;36.06;22.50;95000.63;4991215;28;20034;-86
2023/08/18 11:17:48;;;;;;;7.82;3.28;;;;;;;36.34;22.44;95001.88;4980720;28;20022;-87
2023/08/18 11:20:14;;;;;;;3.60;2.25;;;;;;;36.51;22.23;94994.44;5009119;28;20033;-87
2023/08/18 11:22:41;;;;;;;5.03;2.47;;;;;;;36.71;22.21;94992.25;5007926;28;20044;-81
2023/08/18 11:25:08;;;;;;;4.90;2.60;;;;;;;36.94;21.20;94986.69;5008027;28;20057;-82
2023/08/18 11:27:34;;;;;;;4.05;2.55;;;;;;;37.22;21.80;94987.81;5008420;28;20038;-81
2023/08/18 11:30:00;;;;;;;2.97;2.00;;;;;;;37.28;20.50;94976.00;4990424;28;20037;-83